Terminal Aerodrome Forecast
Issued by NWS Bismarck, ND

Home | Current Version | Previous Version | Text Only | Print | Product List | Glossary On
Versions: 1 2 3 4 5 6 7 8 9 10 11 12 13 14 15
000
FTUS43 KBIS 252300
TAFISN
TAF
KISN 252320Z 2600/2624 12008KT P6SM FEW250
     FM261300 17006KT P6SM FEW200
     FM261600 23006KT P6SM SCT150
     FM261900 28012G20KT P6SM SCT150=

USA.gov is the U.S. government's official web portal to all federal, state and local government web resources and services.